DLH519 MROC-EDDF
Flight info
| Callsign | DLH519 |
|---|---|
| Flight time | N/A |
| Altitude | 34000 |
| Route | NANJO3R RADON UB767 PZA/N0481F360 UB767 PESTO DCT KANEX UM330 ENAMO/N0478F350 DCT GRATX/M081F370 DCT JIMAC DCT QINCY DCT SOORY DCT 44N050W 4730N04000W 50N030W 51N020W DCT DINIM DCT ELSOX DCT LESLU/N0465F370 DCT OXLOW/N0461F390 DCT KONAN UL607 SPI T180 NIVNU T847 IMCOM IMCOM2C |
| Aircraft | A346/H-SDE2E3FGHIJ3J4J5M1P2RWXYZ/LB1D1 |
Departure
| Time | 2026-05-09 01:15 |
|---|---|
| Airport | Juan Santamaría International Airport (MROC) |
Arrival
| Time | N/A |
|---|---|
| Airport | Frankfurt Main Airport (EDDF) |
| Time | Latitude | Longitude | Altitude | Speed | Heading |
|---|---|---|---|---|---|
| 2026-05-09 00:33 | 9.99816 | -84.20154 | 3042 ft | 0 kts | 339° |
| 2026-05-09 00:59 | 9.99813 | -84.20153 | 3044 ft | 3 kts | 339° |
| 2026-05-09 00:59 | 9.99789 | -84.20144 | 3043 ft | 4 kts | 343° |
| 2026-05-09 00:59 | 9.99769 | -84.20141 | 3042 ft | 4 kts | 15° |
| 2026-05-09 01:00 | 9.99767 | -84.20138 | 3041 ft | 0 kts | 251° |
| 2026-05-09 01:00 | 9.99768 | -84.20141 | 3043 ft | 0 kts | 17° |
| 2026-05-09 01:01 | 9.99766 | -84.20139 | 3042 ft | 0 kts | 247° |
| 2026-05-09 01:06 | 9.99765 | -84.20141 | 3029 ft | 1 kts | 247° |
| 2026-05-09 01:06 | 9.99764 | -84.20144 | 3027 ft | 0 kts | 247° |
| 2026-05-09 01:08 | 9.99760 | -84.20154 | 3042 ft | 3 kts | 248° |
| 2026-05-09 01:08 | 9.99751 | -84.20176 | 3043 ft | 4 kts | 250° |
| 2026-05-09 01:08 | 9.99739 | -84.20211 | 3042 ft | 6 kts | 250° |
| 2026-05-09 01:08 | 9.99722 | -84.20256 | 3043 ft | 7 kts | 249° |
| 2026-05-09 01:09 | 9.99703 | -84.20307 | 3044 ft | 8 kts | 248° |
| 2026-05-09 01:09 | 9.99681 | -84.20363 | 3043 ft | 9 kts | 250° |
| 2026-05-09 01:09 | 9.99659 | -84.20426 | 3044 ft | 10 kts | 250° |
| 2026-05-09 01:09 | 9.99634 | -84.20495 | 3043 ft | 11 kts | 250° |
| 2026-05-09 01:10 | 9.99606 | -84.20570 | 3044 ft | 12 kts | 249° |
| 2026-05-09 01:10 | 9.99576 | -84.20651 | 3044 ft | 13 kts | 249° |
| 2026-05-09 01:10 | 9.99543 | -84.20738 | 3042 ft | 13 kts | 248° |
| 2026-05-09 01:10 | 9.99508 | -84.20828 | 3043 ft | 14 kts | 249° |
| 2026-05-09 01:11 | 9.99470 | -84.20930 | 3038 ft | 18 kts | 250° |
| 2026-05-09 01:11 | 9.99415 | -84.21077 | 3023 ft | 27 kts | 249° |
| 2026-05-09 01:11 | 9.99354 | -84.21241 | 3010 ft | 20 kts | 249° |
| 2026-05-09 01:11 | 9.99300 | -84.21385 | 3000 ft | 25 kts | 249° |
| 2026-05-09 01:12 | 9.99239 | -84.21549 | 2988 ft | 24 kts | 249° |
| 2026-05-09 01:12 | 9.99184 | -84.21693 | 2978 ft | 22 kts | 249° |
| 2026-05-09 01:12 | 9.99122 | -84.21858 | 2971 ft | 26 kts | 249° |
| 2026-05-09 01:12 | 9.99061 | -84.22025 | 2956 ft | 23 kts | 249° |
| 2026-05-09 01:13 | 9.99006 | -84.22137 | 2944 ft | 16 kts | 223° |
| 2026-05-09 01:13 | 9.98938 | -84.22139 | 2951 ft | 6 kts | 128° |
| 2026-05-09 01:13 | 9.98933 | -84.22107 | 2946 ft | 5 kts | 86° |
| 2026-05-09 01:13 | 9.98938 | -84.22092 | 2952 ft | 0 kts | 64° |
| 2026-05-09 01:14 | 9.98938 | -84.22091 | 2952 ft | 0 kts | 64° |
| 2026-05-09 01:14 | 9.98969 | -84.22008 | 2960 ft | 36 kts | 70° |
| 2026-05-09 01:15 | 9.99140 | -84.21552 | 2990 ft | 100 kts | 69° |
| 2026-05-09 01:15 | 9.99457 | -84.20703 | 3040 ft | 155 kts | 69° |
| 2026-05-09 01:15 | 9.99914 | -84.19524 | 3196 ft | 188 kts | 70° |
| 2026-05-09 01:15 | 10.00548 | -84.18364 | 4032 ft | 179 kts | 39° |
| 2026-05-09 01:16 | 10.01675 | -84.18168 | 4653 ft | 180 kts | 338° |
| 2026-05-09 01:16 | 10.02797 | -84.18953 | 4941 ft | 208 kts | 322° |
| 2026-05-09 01:16 | 10.03928 | -84.19979 | 5358 ft | 227 kts | 320° |
| 2026-05-09 01:17 | 10.05953 | -84.22663 | 6500 ft | 259 kts | 294° |
| 2026-05-09 01:17 | 10.06624 | -84.24442 | 7022 ft | 279 kts | 291° |
| 2026-05-09 01:17 | 10.07291 | -84.26356 | 7638 ft | 294 kts | 291° |
| 2026-05-09 01:17 | 10.07998 | -84.28358 | 8423 ft | 301 kts | 292° |
| 2026-05-09 01:18 | 10.08732 | -84.30387 | 9250 ft | 306 kts | 293° |
| 2026-05-09 01:18 | 10.09764 | -84.32267 | 9975 ft | 306 kts | 317° |
| 2026-05-09 01:18 | 10.11539 | -84.33519 | 10594 ft | 304 kts | 344° |
| 2026-05-09 01:18 | 10.13649 | -84.33843 | 11012 ft | 312 kts | 9° |
| 2026-05-09 01:19 | 10.15750 | -84.33214 | 11382 ft | 323 kts | 27° |
| 2026-05-09 01:19 | 10.17819 | -84.32246 | 11769 ft | 340 kts | 26° |
| 2026-05-09 01:19 | 10.20030 | -84.31235 | 12112 ft | 357 kts | 26° |
| 2026-05-09 01:19 | 10.22363 | -84.30193 | 12420 ft | 374 kts | 25° |
| 2026-05-09 01:20 | 10.24787 | -84.29123 | 12937 ft | 383 kts | 25° |
| 2026-05-09 01:20 | 10.27243 | -84.28045 | 13684 ft | 385 kts | 25° |
| 2026-05-09 01:20 | 10.29679 | -84.26890 | 14313 ft | 388 kts | 27° |
| 2026-05-09 01:20 | 10.32122 | -84.25687 | 14871 ft | 392 kts | 27° |
| 2026-05-09 01:21 | 10.34588 | -84.24467 | 15392 ft | 397 kts | 27° |
| 2026-05-09 01:21 | 10.37085 | -84.23233 | 15939 ft | 401 kts | 27° |
| 2026-05-09 01:21 | 10.39605 | -84.21989 | 16483 ft | 405 kts | 26° |
| 2026-05-09 01:21 | 10.42152 | -84.20732 | 17043 ft | 409 kts | 26° |
| 2026-05-09 01:22 | 10.44727 | -84.19462 | 17575 ft | 413 kts | 26° |
| 2026-05-09 01:22 | 10.47340 | -84.18174 | 17866 ft | 424 kts | 26° |
| 2026-05-09 01:22 | 10.50042 | -84.16842 | 17905 ft | 439 kts | 26° |
| 2026-05-09 01:22 | 10.52780 | -84.15488 | 18281 ft | 431 kts | 26° |
| 2026-05-09 01:23 | 10.55454 | -84.14165 | 18597 ft | 423 kts | 26° |
| 2026-05-09 01:23 | 10.58068 | -84.12879 | 18954 ft | 423 kts | 26° |
| 2026-05-09 01:23 | 10.60728 | -84.11572 | 19314 ft | 425 kts | 26° |
| 2026-05-09 01:23 | 10.63395 | -84.10259 | 19676 ft | 426 kts | 27° |
| 2026-05-09 01:24 | 10.66068 | -84.08940 | 20047 ft | 427 kts | 26° |
| 2026-05-09 01:24 | 10.68802 | -84.07721 | 20413 ft | 429 kts | 23° |
| 2026-05-09 01:24 | 10.71626 | -84.06699 | 20800 ft | 431 kts | 19° |
| 2026-05-09 01:24 | 10.74524 | -84.05888 | 21175 ft | 433 kts | 15° |
| 2026-05-09 01:25 | 10.77464 | -84.05199 | 21581 ft | 434 kts | 14° |
| 2026-05-09 01:25 | 10.80411 | -84.04529 | 21987 ft | 434 kts | 14° |
| 2026-05-09 01:25 | 10.83367 | -84.03861 | 22376 ft | 435 kts | 15° |
| 2026-05-09 01:25 | 10.86324 | -84.03191 | 22788 ft | 435 kts | 15° |
| 2026-05-09 01:26 | 10.89282 | -84.02519 | 23201 ft | 435 kts | 15° |
| 2026-05-09 01:26 | 10.92238 | -84.01846 | 23582 ft | 435 kts | 15° |
| 2026-05-09 01:26 | 10.95157 | -84.01179 | 23841 ft | 438 kts | 15° |
| 2026-05-09 01:26 | 10.98167 | -84.00489 | 23873 ft | 447 kts | 15° |
| 2026-05-09 01:27 | 11.01237 | -83.99785 | 23877 ft | 455 kts | 15° |
| 2026-05-09 01:27 | 11.04338 | -83.99075 | 23881 ft | 458 kts | 15° |
| 2026-05-09 01:27 | 11.07445 | -83.98366 | 23886 ft | 458 kts | 15° |
| 2026-05-09 01:27 | 11.10559 | -83.97655 | 23884 ft | 458 kts | 15° |
| 2026-05-09 01:28 | 11.13677 | -83.96941 | 23885 ft | 458 kts | 15° |
| 2026-05-09 01:28 | 11.16749 | -83.96238 | 23882 ft | 458 kts | 15° |
| 2026-05-09 01:28 | 11.19859 | -83.95526 | 23883 ft | 458 kts | 15° |
| 2026-05-09 01:28 | 11.22969 | -83.94813 | 23884 ft | 457 kts | 15° |
| 2026-05-09 01:29 | 11.26074 | -83.94102 | 23883 ft | 457 kts | 15° |
| 2026-05-09 01:29 | 11.29186 | -83.93389 | 23883 ft | 457 kts | 15° |
| 2026-05-09 01:29 | 11.32295 | -83.92677 | 23885 ft | 457 kts | 15° |
| 2026-05-09 01:29 | 11.35396 | -83.91967 | 23888 ft | 457 kts | 15° |
| 2026-05-09 01:30 | 11.38501 | -83.91255 | 23883 ft | 457 kts | 15° |
| 2026-05-09 01:30 | 11.41558 | -83.90555 | 23882 ft | 456 kts | 15° |
| 2026-05-09 01:30 | 11.44698 | -83.89835 | 23888 ft | 456 kts | 15° |
| 2026-05-09 01:30 | 11.47803 | -83.89123 | 23884 ft | 456 kts | 15° |
| 2026-05-09 01:31 | 11.50860 | -83.88423 | 23885 ft | 456 kts | 15° |
| 2026-05-09 01:31 | 11.53959 | -83.87712 | 23882 ft | 456 kts | 15° |
| 2026-05-09 01:31 | 11.57056 | -83.87001 | 23886 ft | 456 kts | 15° |
| 2026-05-09 01:31 | 11.60156 | -83.86290 | 23883 ft | 456 kts | 15° |
| 2026-05-09 01:32 | 11.63256 | -83.85579 | 23889 ft | 456 kts | 15° |
| 2026-05-09 01:32 | 11.66354 | -83.84868 | 23887 ft | 455 kts | 15° |
| 2026-05-09 01:32 | 11.69452 | -83.84157 | 23888 ft | 456 kts | 15° |
| 2026-05-09 01:32 | 11.72547 | -83.83446 | 23883 ft | 456 kts | 15° |
| 2026-05-09 01:33 | 11.75639 | -83.82736 | 23885 ft | 455 kts | 15° |
| 2026-05-09 01:33 | 11.78733 | -83.82025 | 23885 ft | 455 kts | 15° |
| 2026-05-09 01:33 | 11.81780 | -83.81325 | 23881 ft | 455 kts | 15° |
| 2026-05-09 01:33 | 11.84875 | -83.80615 | 23880 ft | 455 kts | 15° |
| 2026-05-09 01:34 | 11.87964 | -83.79905 | 23883 ft | 455 kts | 15° |
| 2026-05-09 01:34 | 11.91062 | -83.79194 | 23885 ft | 455 kts | 15° |
| 2026-05-09 01:34 | 11.94148 | -83.78484 | 23884 ft | 455 kts | 15° |
| 2026-05-09 01:34 | 11.97241 | -83.77773 | 23885 ft | 455 kts | 15° |
| 2026-05-09 01:35 | 12.00341 | -83.77101 | 23883 ft | 455 kts | 14° |
| 2026-05-09 01:35 | 12.03462 | -83.76507 | 23885 ft | 455 kts | 13° |
| 2026-05-09 01:35 | 12.06583 | -83.75925 | 23884 ft | 455 kts | 13° |
| 2026-05-09 01:35 | 12.09697 | -83.75347 | 23883 ft | 455 kts | 13° |
| 2026-05-09 01:36 | 12.11764 | -83.74964 | 23882 ft | 455 kts | 13° |
| 2026-05-09 01:36 | 12.14878 | -83.74385 | 23883 ft | 455 kts | 13° |
| 2026-05-09 01:36 | 12.19011 | -83.73617 | 23882 ft | 455 kts | 13° |
| 2026-05-09 01:36 | 12.22133 | -83.73037 | 23888 ft | 455 kts | 13° |
| 2026-05-09 01:37 | 12.24238 | -83.72645 | 23889 ft | 455 kts | 13° |
| 2026-05-09 01:37 | 12.27351 | -83.72065 | 23887 ft | 455 kts | 13° |
| 2026-05-09 01:37 | 12.30476 | -83.71483 | 23889 ft | 455 kts | 13° |
| 2026-05-09 01:37 | 12.33556 | -83.70910 | 23886 ft | 455 kts | 13° |
| 2026-05-09 01:38 | 12.36677 | -83.70328 | 23892 ft | 455 kts | 13° |
| 2026-05-09 01:38 | 12.39794 | -83.69747 | 23889 ft | 455 kts | 13° |
| 2026-05-09 01:38 | 12.42919 | -83.69164 | 23889 ft | 455 kts | 13° |
| 2026-05-09 01:38 | 12.46031 | -83.68584 | 23890 ft | 455 kts | 13° |
| 2026-05-09 01:39 | 12.49150 | -83.68002 | 23887 ft | 455 kts | 13° |
| 2026-05-09 01:39 | 12.52265 | -83.67420 | 23886 ft | 455 kts | 13° |
| 2026-05-09 01:39 | 12.55378 | -83.66839 | 23883 ft | 455 kts | 13° |
| 2026-05-09 01:39 | 12.58490 | -83.66258 | 23891 ft | 455 kts | 13° |
| 2026-05-09 01:40 | 12.61608 | -83.65676 | 23891 ft | 455 kts | 13° |
| 2026-05-09 01:40 | 12.64735 | -83.65092 | 23888 ft | 455 kts | 13° |
| 2026-05-09 01:40 | 12.67809 | -83.64517 | 23886 ft | 455 kts | 13° |
| 2026-05-09 01:40 | 12.70927 | -83.63934 | 23893 ft | 455 kts | 13° |
| 2026-05-09 01:41 | 12.74046 | -83.63351 | 23887 ft | 455 kts | 13° |
| 2026-05-09 01:41 | 12.77164 | -83.62768 | 23890 ft | 455 kts | 13° |
| 2026-05-09 01:41 | 12.80277 | -83.62186 | 23890 ft | 455 kts | 13° |
| 2026-05-09 01:41 | 12.83399 | -83.61602 | 23896 ft | 455 kts | 14° |
| 2026-05-09 01:42 | 12.86505 | -83.61021 | 23891 ft | 455 kts | 14° |
| 2026-05-09 01:42 | 12.89625 | -83.60437 | 23890 ft | 455 kts | 14° |
| 2026-05-09 01:42 | 12.92715 | -83.59858 | 23891 ft | 455 kts | 14° |
| 2026-05-09 01:42 | 12.95830 | -83.59275 | 23891 ft | 455 kts | 14° |
| 2026-05-09 01:43 | 12.98944 | -83.58691 | 23889 ft | 455 kts | 14° |
| 2026-05-09 01:43 | 13.02058 | -83.58108 | 23887 ft | 455 kts | 14° |
| 2026-05-09 01:43 | 13.05173 | -83.57524 | 23889 ft | 455 kts | 14° |
| 2026-05-09 01:43 | 13.08291 | -83.56940 | 23890 ft | 455 kts | 14° |
| 2026-05-09 01:44 | 13.11400 | -83.56357 | 23892 ft | 455 kts | 14° |
| 2026-05-09 01:44 | 13.14515 | -83.55772 | 23891 ft | 455 kts | 14° |
| 2026-05-09 01:44 | 13.17625 | -83.55189 | 23894 ft | 455 kts | 14° |
| 2026-05-09 01:44 | 13.20739 | -83.54605 | 23893 ft | 455 kts | 14° |
| 2026-05-09 01:45 | 13.23862 | -83.54018 | 23892 ft | 455 kts | 14° |
| 2026-05-09 01:45 | 13.26971 | -83.53435 | 23892 ft | 454 kts | 14° |
| 2026-05-09 01:45 | 13.30086 | -83.52850 | 23885 ft | 455 kts | 13° |
| 2026-05-09 01:45 | 13.33199 | -83.52265 | 23891 ft | 455 kts | 13° |
| 2026-05-09 01:46 | 13.36276 | -83.51687 | 23887 ft | 455 kts | 13° |
| 2026-05-09 01:46 | 13.39388 | -83.51101 | 23892 ft | 455 kts | 13° |
| 2026-05-09 01:46 | 13.42498 | -83.50517 | 23891 ft | 455 kts | 13° |
| 2026-05-09 01:46 | 13.45611 | -83.49932 | 23892 ft | 455 kts | 13° |
| 2026-05-09 01:47 | 13.48722 | -83.49347 | 23896 ft | 455 kts | 13° |
| 2026-05-09 01:47 | 13.51841 | -83.48760 | 23891 ft | 455 kts | 13° |
| 2026-05-09 01:47 | 13.54953 | -83.48174 | 23891 ft | 455 kts | 13° |
| 2026-05-09 01:47 | 13.58075 | -83.47587 | 23893 ft | 455 kts | 13° |
| 2026-05-09 01:48 | 13.61195 | -83.46999 | 23894 ft | 455 kts | 13° |
| 2026-05-09 01:48 | 13.64310 | -83.46413 | 23893 ft | 455 kts | 13° |
| 2026-05-09 01:48 | 13.67426 | -83.45826 | 23894 ft | 455 kts | 13° |
| 2026-05-09 01:48 | 13.70542 | -83.45239 | 23899 ft | 455 kts | 13° |
| 2026-05-09 01:49 | 13.73623 | -83.44658 | 23902 ft | 455 kts | 13° |
| 2026-05-09 01:49 | 13.76740 | -83.44071 | 23897 ft | 455 kts | 13° |
| 2026-05-09 01:49 | 13.79857 | -83.43483 | 23889 ft | 455 kts | 13° |
| 2026-05-09 01:49 | 13.82970 | -83.42896 | 23893 ft | 455 kts | 13° |
| 2026-05-09 01:50 | 13.86085 | -83.42309 | 23902 ft | 455 kts | 13° |
| 2026-05-09 01:50 | 13.89211 | -83.41720 | 23902 ft | 455 kts | 13° |
| 2026-05-09 01:50 | 13.92326 | -83.41132 | 23896 ft | 455 kts | 13° |
| 2026-05-09 01:50 | 13.95448 | -83.40543 | 23893 ft | 455 kts | 13° |
| 2026-05-09 01:51 | 13.98565 | -83.39955 | 23895 ft | 456 kts | 13° |
| 2026-05-09 01:51 | 14.01679 | -83.39319 | 23902 ft | 455 kts | 15° |
| 2026-05-09 01:51 | 14.04750 | -83.38532 | 23905 ft | 453 kts | 18° |
| 2026-05-09 01:51 | 14.07766 | -83.37588 | 23892 ft | 452 kts | 21° |
| 2026-05-09 01:52 | 14.10734 | -83.36512 | 23904 ft | 452 kts | 22° |
| 2026-05-09 01:52 | 14.13652 | -83.35423 | 23897 ft | 452 kts | 22° |
| 2026-05-09 01:52 | 14.16617 | -83.34310 | 23907 ft | 452 kts | 22° |
| 2026-05-09 01:52 | 14.19574 | -83.33200 | 23906 ft | 452 kts | 22° |
| 2026-05-09 01:53 | 14.22532 | -83.32091 | 23906 ft | 452 kts | 22° |
| 2026-05-09 01:53 | 14.25494 | -83.30980 | 23901 ft | 452 kts | 22° |
| 2026-05-09 01:53 | 14.28457 | -83.29870 | 23904 ft | 452 kts | 22° |
| 2026-05-09 01:53 | 14.31416 | -83.28761 | 23911 ft | 453 kts | 22° |
| 2026-05-09 01:54 | 14.34372 | -83.27654 | 23898 ft | 453 kts | 22° |
| 2026-05-09 01:54 | 14.37331 | -83.26545 | 23910 ft | 453 kts | 22° |
| 2026-05-09 01:54 | 14.40296 | -83.25433 | 23911 ft | 453 kts | 22° |
| 2026-05-09 01:54 | 14.43254 | -83.24325 | 23913 ft | 452 kts | 22° |
| 2026-05-09 01:55 | 14.46177 | -83.23228 | 23914 ft | 452 kts | 22° |
| 2026-05-09 01:55 | 14.49142 | -83.22116 | 23913 ft | 453 kts | 22° |
| 2026-05-09 01:55 | 14.52105 | -83.21004 | 23913 ft | 453 kts | 22° |
| 2026-05-09 01:55 | 14.55067 | -83.19893 | 23912 ft | 453 kts | 22° |
| 2026-05-09 01:56 | 14.58025 | -83.18782 | 23914 ft | 453 kts | 22° |
| 2026-05-09 01:56 | 14.60990 | -83.17668 | 23912 ft | 453 kts | 22° |
| 2026-05-09 01:56 | 14.63965 | -83.16551 | 23912 ft | 453 kts | 22° |
| 2026-05-09 01:56 | 14.66929 | -83.15437 | 23914 ft | 454 kts | 22° |
| 2026-05-09 01:57 | 14.69906 | -83.14318 | 23914 ft | 454 kts | 22° |
| 2026-05-09 01:57 | 14.72893 | -83.13195 | 24058 ft | 458 kts | 22° |
| 2026-05-09 01:57 | 14.75894 | -83.12065 | 24400 ft | 458 kts | 22° |
| 2026-05-09 01:57 | 14.78893 | -83.10936 | 24714 ft | 459 kts | 22° |
| 2026-05-09 01:58 | 14.81905 | -83.09802 | 24985 ft | 462 kts | 22° |
| 2026-05-09 01:58 | 14.84887 | -83.08680 | 25253 ft | 464 kts | 22° |
| 2026-05-09 01:58 | 14.87933 | -83.07533 | 25527 ft | 466 kts | 21° |
| 2026-05-09 01:58 | 14.90987 | -83.06383 | 25795 ft | 468 kts | 21° |
| 2026-05-09 01:59 | 14.94048 | -83.05230 | 26068 ft | 470 kts | 21° |
| 2026-05-09 01:59 | 14.97127 | -83.04070 | 26335 ft | 471 kts | 21° |
| 2026-05-09 01:59 | 15.00247 | -83.02894 | 26566 ft | 473 kts | 21° |
| 2026-05-09 01:59 | 15.03346 | -83.01727 | 26820 ft | 474 kts | 21° |
| 2026-05-09 02:00 | 15.06451 | -83.00555 | 27074 ft | 476 kts | 21° |
| 2026-05-09 02:00 | 15.09566 | -82.99381 | 27320 ft | 477 kts | 21° |
| 2026-05-09 02:00 | 15.12688 | -82.98203 | 27559 ft | 478 kts | 21° |
| 2026-05-09 02:00 | 15.15829 | -82.97018 | 27813 ft | 479 kts | 21° |
| 2026-05-09 02:01 | 15.18955 | -82.95838 | 28148 ft | 478 kts | 21° |
| 2026-05-09 02:01 | 15.22079 | -82.94659 | 28535 ft | 476 kts | 21° |
| 2026-05-09 02:01 | 15.25180 | -82.93486 | 28912 ft | 475 kts | 21° |
| 2026-05-09 02:01 | 15.28282 | -82.92313 | 29233 ft | 474 kts | 21° |
| 2026-05-09 02:02 | 15.31333 | -82.91158 | 29567 ft | 473 kts | 21° |
| 2026-05-09 02:02 | 15.34424 | -82.89988 | 29907 ft | 472 kts | 21° |
| 2026-05-09 02:02 | 15.37510 | -82.88820 | 30190 ft | 471 kts | 21° |
| 2026-05-09 02:02 | 15.40591 | -82.87655 | 30458 ft | 471 kts | 21° |
| 2026-05-09 02:03 | 15.43668 | -82.86491 | 30736 ft | 470 kts | 21° |
| 2026-05-09 02:03 | 15.46737 | -82.85330 | 30986 ft | 469 kts | 20° |
| 2026-05-09 02:03 | 15.49798 | -82.84171 | 31253 ft | 468 kts | 20° |
| 2026-05-09 02:03 | 15.52867 | -82.83008 | 31523 ft | 468 kts | 20° |
| 2026-05-09 02:04 | 15.55930 | -82.81849 | 31804 ft | 467 kts | 20° |
| 2026-05-09 02:04 | 15.58985 | -82.80691 | 32078 ft | 466 kts | 20° |
| 2026-05-09 02:04 | 15.61988 | -82.79552 | 32327 ft | 466 kts | 20° |
| 2026-05-09 02:04 | 15.64850 | -82.78467 | 32546 ft | 466 kts | 20° |
| 2026-05-09 02:05 | 15.67902 | -82.77310 | 32794 ft | 466 kts | 20° |
| 2026-05-09 02:05 | 15.70951 | -82.76153 | 33048 ft | 466 kts | 20° |
| 2026-05-09 02:05 | 15.73999 | -82.74996 | 33303 ft | 465 kts | 20° |
| 2026-05-09 02:05 | 15.77047 | -82.73839 | 33559 ft | 465 kts | 20° |
| 2026-05-09 02:06 | 15.80056 | -82.72697 | 33808 ft | 465 kts | 20° |
| 2026-05-09 02:06 | 15.83092 | -82.71544 | 34017 ft | 465 kts | 20° |
| 2026-05-09 02:06 | 15.86133 | -82.70388 | 34239 ft | 464 kts | 20° |
| 2026-05-09 02:07 | 15.92217 | -82.68076 | 34629 ft | 464 kts | 20° |
| 2026-05-09 02:07 | 15.95253 | -82.66921 | 34813 ft | 464 kts | 20° |
| 2026-05-09 02:07 | 15.98293 | -82.65765 | 35009 ft | 464 kts | 20° |
| 2026-05-09 02:07 | 16.01326 | -82.64611 | 35207 ft | 464 kts | 20° |
| 2026-05-09 02:08 | 16.04314 | -82.63473 | 35400 ft | 464 kts | 20° |
| 2026-05-09 02:08 | 16.07353 | -82.62315 | 35553 ft | 464 kts | 20° |
| 2026-05-09 02:08 | 16.10394 | -82.61156 | 35715 ft | 465 kts | 20° |
| 2026-05-09 02:08 | 16.13433 | -82.59999 | 35870 ft | 465 kts | 20° |
| 2026-05-09 02:09 | 16.16479 | -82.58838 | 35912 ft | 466 kts | 20° |
| 2026-05-09 02:09 | 16.22581 | -82.56510 | 35925 ft | 466 kts | 20° |
| 2026-05-09 02:10 | 16.28629 | -82.54203 | 35927 ft | 466 kts | 20° |
| 2026-05-09 02:10 | 16.34752 | -82.51864 | 35921 ft | 466 kts | 20° |
| 2026-05-09 02:11 | 16.40835 | -82.49539 | 35924 ft | 465 kts | 20° |
| 2026-05-09 02:11 | 16.46849 | -82.47239 | 35928 ft | 465 kts | 20° |
| 2026-05-09 02:12 | 16.53026 | -82.44876 | 35926 ft | 465 kts | 20° |
| 2026-05-09 02:12 | 16.59113 | -82.42544 | 35928 ft | 465 kts | 20° |
| 2026-05-09 02:13 | 16.65194 | -82.40214 | 35933 ft | 465 kts | 20° |
| 2026-05-09 02:13 | 16.71236 | -82.37897 | 35932 ft | 465 kts | 20° |
| 2026-05-09 02:14 | 16.77308 | -82.35567 | 35930 ft | 465 kts | 20° |
| 2026-05-09 02:14 | 16.83382 | -82.33235 | 35934 ft | 465 kts | 20° |
| 2026-05-09 02:15 | 16.89459 | -82.30900 | 35933 ft | 465 kts | 20° |
| 2026-05-09 02:15 | 16.95528 | -82.28566 | 35933 ft | 464 kts | 20° |
| 2026-05-09 02:16 | 17.01601 | -82.26230 | 35935 ft | 465 kts | 20° |
| 2026-05-09 02:16 | 17.07628 | -82.23909 | 35939 ft | 464 kts | 20° |
| 2026-05-09 02:17 | 17.13704 | -82.21569 | 35937 ft | 464 kts | 20° |
| 2026-05-09 02:17 | 17.19774 | -82.19228 | 35938 ft | 464 kts | 20° |
| 2026-05-09 02:18 | 17.25038 | -82.17198 | 35940 ft | 464 kts | 20° |
| 2026-05-09 02:18 | 17.31070 | -82.14869 | 35940 ft | 465 kts | 20° |
| 2026-05-09 02:19 | 17.37141 | -82.12524 | 35943 ft | 464 kts | 20° |
| 2026-05-09 02:19 | 17.43212 | -82.10178 | 35941 ft | 464 kts | 20° |
| 2026-05-09 02:20 | 17.49288 | -82.07828 | 35938 ft | 464 kts | 20° |
| 2026-05-09 02:20 | 17.55328 | -82.05410 | 35944 ft | 465 kts | 22° |
| 2026-05-09 02:21 | 17.61170 | -82.02478 | 35946 ft | 465 kts | 26° |
| 2026-05-09 02:21 | 17.66900 | -81.99387 | 35943 ft | 465 kts | 26° |
| 2026-05-09 02:22 | 17.72657 | -81.96275 | 35945 ft | 465 kts | 26° |
| 2026-05-09 02:22 | 17.78416 | -81.93164 | 35947 ft | 465 kts | 26° |
| 2026-05-09 02:23 | 17.84175 | -81.90053 | 35949 ft | 466 kts | 26° |
| 2026-05-09 02:23 | 17.89942 | -81.86936 | 35949 ft | 466 kts | 26° |
| 2026-05-09 02:24 | 17.95668 | -81.83839 | 35950 ft | 466 kts | 26° |
| 2026-05-09 02:24 | 18.01436 | -81.80718 | 35949 ft | 466 kts | 26° |
| 2026-05-09 02:25 | 18.07208 | -81.77591 | 35951 ft | 466 kts | 26° |
| 2026-05-09 02:25 | 18.12011 | -81.74988 | 35950 ft | 466 kts | 26° |
| 2026-05-09 02:26 | 18.17782 | -81.71858 | 35950 ft | 466 kts | 26° |
| 2026-05-09 02:26 | 18.23555 | -81.68725 | 35953 ft | 467 kts | 26° |
| 2026-05-09 02:27 | 18.29327 | -81.65590 | 35954 ft | 467 kts | 26° |
| 2026-05-09 02:27 | 18.35108 | -81.62448 | 35955 ft | 467 kts | 26° |
| 2026-05-09 02:28 | 18.40835 | -81.59332 | 35959 ft | 467 kts | 26° |
| 2026-05-09 02:28 | 18.46611 | -81.56188 | 35955 ft | 466 kts | 26° |
| 2026-05-09 02:29 | 18.52382 | -81.53043 | 35957 ft | 467 kts | 26° |
| 2026-05-09 02:29 | 18.58154 | -81.49896 | 35961 ft | 467 kts | 26° |
| 2026-05-09 02:30 | 18.63926 | -81.46746 | 35960 ft | 466 kts | 26° |
| 2026-05-09 02:30 | 18.69692 | -81.43597 | 35958 ft | 466 kts | 26° |
| 2026-05-09 02:31 | 18.75452 | -81.40449 | 35958 ft | 467 kts | 26° |
| 2026-05-09 02:31 | 18.81219 | -81.37295 | 35957 ft | 467 kts | 26° |
| 2026-05-09 02:32 | 18.86998 | -81.34132 | 35960 ft | 467 kts | 26° |
| 2026-05-09 02:32 | 18.92741 | -81.30986 | 35959 ft | 467 kts | 26° |
| 2026-05-09 02:33 | 18.98523 | -81.27816 | 35964 ft | 467 kts | 26° |
| 2026-05-09 02:33 | 19.04334 | -81.24628 | 35968 ft | 467 kts | 26° |
| 2026-05-09 02:34 | 19.10104 | -81.21460 | 35971 ft | 467 kts | 26° |
| 2026-05-09 02:34 | 19.15907 | -81.18272 | 35973 ft | 467 kts | 26° |
| 2026-05-09 02:35 | 19.21675 | -81.15099 | 35973 ft | 467 kts | 26° |
| 2026-05-09 02:35 | 19.27443 | -81.11925 | 35970 ft | 467 kts | 26° |
| 2026-05-09 02:36 | 19.33183 | -81.08763 | 35969 ft | 467 kts | 26° |
| 2026-05-09 02:36 | 19.38952 | -81.05583 | 35968 ft | 467 kts | 26° |
| 2026-05-09 02:37 | 19.44727 | -81.02397 | 35965 ft | 467 kts | 26° |
| 2026-05-09 02:37 | 19.50507 | -80.99206 | 35963 ft | 468 kts | 26° |
| 2026-05-09 02:38 | 19.56284 | -80.96013 | 35966 ft | 468 kts | 26° |
| 2026-05-09 02:38 | 19.62027 | -80.92837 | 35968 ft | 468 kts | 26° |
| 2026-05-09 02:39 | 19.67799 | -80.89643 | 35969 ft | 468 kts | 26° |
| 2026-05-09 02:39 | 19.73583 | -80.86439 | 35967 ft | 468 kts | 26° |
| 2026-05-09 02:40 | 19.79358 | -80.83238 | 35967 ft | 468 kts | 26° |
| 2026-05-09 02:40 | 19.85137 | -80.80032 | 35966 ft | 468 kts | 26° |
| 2026-05-09 02:41 | 19.90926 | -80.76818 | 35968 ft | 469 kts | 26° |
| 2026-05-09 02:41 | 19.96629 | -80.73516 | 35970 ft | 469 kts | 30° |
| 2026-05-09 02:42 | 20.02060 | -80.69632 | 35969 ft | 471 kts | 36° |
| 2026-05-09 02:42 | 20.07119 | -80.65189 | 35971 ft | 472 kts | 39° |
| 2026-05-09 02:43 | 20.12072 | -80.60584 | 35972 ft | 472 kts | 39° |
| 2026-05-09 02:43 | 20.17024 | -80.55976 | 35971 ft | 472 kts | 39° |
| 2026-05-09 02:44 | 20.21981 | -80.51365 | 35971 ft | 472 kts | 39° |
| 2026-05-09 02:44 | 20.26935 | -80.46756 | 35971 ft | 472 kts | 39° |
| 2026-05-09 02:45 | 20.31860 | -80.42171 | 35969 ft | 472 kts | 39° |
| 2026-05-09 02:45 | 20.36810 | -80.37559 | 35972 ft | 473 kts | 39° |
| 2026-05-09 02:46 | 20.41772 | -80.32931 | 35973 ft | 473 kts | 39° |
| 2026-05-09 02:46 | 20.46740 | -80.28295 | 35972 ft | 473 kts | 39° |
| 2026-05-09 02:47 | 20.51697 | -80.23664 | 35972 ft | 473 kts | 39° |
| 2026-05-09 02:47 | 20.56648 | -80.19028 | 35973 ft | 473 kts | 39° |
| 2026-05-09 02:48 | 20.61607 | -80.14380 | 35972 ft | 474 kts | 39° |
| 2026-05-09 02:48 | 20.66570 | -80.09725 | 35972 ft | 474 kts | 39° |
| 2026-05-09 02:49 | 20.71532 | -80.05067 | 35975 ft | 474 kts | 39° |
| 2026-05-09 02:49 | 20.76494 | -80.00405 | 35976 ft | 475 kts | 39° |
| 2026-05-09 02:50 | 20.81428 | -79.95766 | 35979 ft | 475 kts | 39° |
| 2026-05-09 02:50 | 20.86391 | -79.91094 | 35978 ft | 475 kts | 39° |
| 2026-05-09 02:51 | 20.91358 | -79.86416 | 35982 ft | 475 kts | 39° |
| 2026-05-09 02:51 | 20.96325 | -79.81733 | 35983 ft | 475 kts | 39° |
| 2026-05-09 02:52 | 21.01289 | -79.77047 | 35985 ft | 476 kts | 39° |
| 2026-05-09 02:52 | 21.06255 | -79.72356 | 35986 ft | 476 kts | 39° |
| 2026-05-09 02:53 | 21.11227 | -79.67655 | 35988 ft | 476 kts | 39° |
| 2026-05-09 02:53 | 21.16198 | -79.62951 | 35990 ft | 476 kts | 39° |
| 2026-05-09 02:54 | 21.21173 | -79.58238 | 35990 ft | 477 kts | 39° |
| 2026-05-09 02:54 | 21.26112 | -79.53556 | 35991 ft | 477 kts | 39° |
| 2026-05-09 02:55 | 21.31109 | -79.48813 | 35990 ft | 477 kts | 39° |
| 2026-05-09 02:55 | 21.36084 | -79.44091 | 35991 ft | 477 kts | 39° |
| 2026-05-09 02:56 | 21.41056 | -79.39366 | 35994 ft | 477 kts | 39° |
| 2026-05-09 02:56 | 21.46034 | -79.34632 | 35995 ft | 478 kts | 39° |
| 2026-05-09 02:57 | 21.51026 | -79.29881 | 35997 ft | 478 kts | 39° |
| 2026-05-09 02:57 | 21.55985 | -79.25156 | 35998 ft | 478 kts | 39° |
| 2026-05-09 02:58 | 21.60965 | -79.20408 | 35997 ft | 479 kts | 39° |
| 2026-05-09 02:58 | 21.65932 | -79.15666 | 36002 ft | 479 kts | 39° |
| 2026-05-09 02:59 | 21.70979 | -79.10844 | 36000 ft | 479 kts | 39° |
| 2026-05-09 02:59 | 21.75961 | -79.06075 | 36004 ft | 479 kts | 39° |
| 2026-05-09 03:00 | 21.80973 | -79.01276 | 36005 ft | 480 kts | 39° |
| 2026-05-09 03:00 | 21.85968 | -78.96488 | 36007 ft | 480 kts | 39° |
| 2026-05-09 03:01 | 21.90991 | -78.91670 | 36012 ft | 480 kts | 39° |
| 2026-05-09 03:01 | 21.95989 | -78.86871 | 36013 ft | 481 kts | 39° |
| 2026-05-09 03:02 | 22.00984 | -78.82069 | 36010 ft | 481 kts | 39° |
| 2026-05-09 03:02 | 22.06038 | -78.77329 | 36010 ft | 481 kts | 38° |
| 2026-05-09 03:03 | 22.11099 | -78.72652 | 36009 ft | 481 kts | 38° |
| 2026-05-09 03:03 | 22.16205 | -78.67919 | 36010 ft | 482 kts | 38° |
| 2026-05-09 03:04 | 22.21290 | -78.63195 | 36006 ft | 482 kts | 38° |
| 2026-05-09 03:04 | 22.26380 | -78.58458 | 36006 ft | 482 kts | 38° |
| 2026-05-09 03:05 | 22.31467 | -78.53718 | 36006 ft | 483 kts | 38° |
| 2026-05-09 03:05 | 22.36564 | -78.48964 | 36009 ft | 483 kts | 38° |
| 2026-05-09 03:06 | 22.41621 | -78.44243 | 36004 ft | 483 kts | 38° |
| 2026-05-09 03:06 | 22.46713 | -78.39485 | 36006 ft | 483 kts | 38° |
| 2026-05-09 03:07 | 22.51806 | -78.34721 | 36008 ft | 484 kts | 38° |
| 2026-05-09 03:07 | 22.56903 | -78.29946 | 36009 ft | 484 kts | 38° |
| 2026-05-09 03:08 | 22.62011 | -78.25158 | 36010 ft | 484 kts | 38° |
| 2026-05-09 03:08 | 22.67083 | -78.20399 | 36011 ft | 485 kts | 38° |
| 2026-05-09 03:09 | 22.72192 | -78.15600 | 36012 ft | 485 kts | 38° |
| 2026-05-09 03:09 | 22.77302 | -78.10795 | 36007 ft | 485 kts | 38° |
| 2026-05-09 03:10 | 22.82406 | -78.05990 | 36015 ft | 486 kts | 38° |
| 2026-05-09 03:10 | 22.87515 | -78.01175 | 36016 ft | 486 kts | 38° |
| 2026-05-09 03:11 | 22.92597 | -77.96381 | 36014 ft | 486 kts | 38° |
| 2026-05-09 03:11 | 22.97711 | -77.91553 | 36014 ft | 487 kts | 38° |
| 2026-05-09 03:12 | 23.02825 | -77.86718 | 36020 ft | 487 kts | 38° |
| 2026-05-09 03:12 | 23.07914 | -77.81902 | 36020 ft | 488 kts | 38° |
| 2026-05-09 03:13 | 23.15597 | -77.74621 | 36020 ft | 488 kts | 38° |
| 2026-05-09 03:13 | 23.20727 | -77.69754 | 36022 ft | 489 kts | 38° |
| 2026-05-09 03:14 | 23.24994 | -77.65701 | 36020 ft | 489 kts | 38° |
| 2026-05-09 03:14 | 23.30121 | -77.60827 | 36022 ft | 489 kts | 38° |
| 2026-05-09 03:15 | 23.35255 | -77.55943 | 36024 ft | 490 kts | 38° |
| 2026-05-09 03:15 | 23.40360 | -77.51083 | 36026 ft | 490 kts | 38° |
| 2026-05-09 03:16 | 23.45498 | -77.46185 | 36030 ft | 491 kts | 38° |
| 2026-05-09 03:16 | 23.50651 | -77.41269 | 36029 ft | 491 kts | 38° |
| 2026-05-09 03:17 | 23.55797 | -77.36359 | 36027 ft | 491 kts | 38° |
| 2026-05-09 03:17 | 23.61078 | -77.31629 | 36029 ft | 491 kts | 36° |
| 2026-05-09 03:18 | 23.66392 | -77.26938 | 36033 ft | 491 kts | 36° |
| 2026-05-09 03:18 | 23.71672 | -77.22269 | 36036 ft | 491 kts | 36° |
| 2026-05-09 03:19 | 23.76990 | -77.17557 | 36033 ft | 492 kts | 36° |
| 2026-05-09 03:19 | 23.82302 | -77.12841 | 36036 ft | 492 kts | 36° |
| 2026-05-09 03:20 | 23.87621 | -77.08115 | 36036 ft | 492 kts | 36° |
| 2026-05-09 03:20 | 23.92904 | -77.03415 | 36031 ft | 492 kts | 36° |
| 2026-05-09 03:21 | 23.98224 | -76.98677 | 36037 ft | 493 kts | 36° |
| 2026-05-09 03:21 | 24.03545 | -76.93932 | 36036 ft | 493 kts | 36° |
| 2026-05-09 03:22 | 24.08868 | -76.89181 | 36038 ft | 493 kts | 36° |
| 2026-05-09 03:22 | 24.14184 | -76.84431 | 36039 ft | 493 kts | 36° |
| 2026-05-09 03:23 | 24.19505 | -76.79671 | 36040 ft | 494 kts | 36° |
| 2026-05-09 03:23 | 24.24806 | -76.74924 | 36046 ft | 494 kts | 36° |
| 2026-05-09 03:24 | 24.30143 | -76.70139 | 36039 ft | 494 kts | 36° |
| 2026-05-09 03:24 | 24.35465 | -76.65362 | 36048 ft | 494 kts | 36° |
| 2026-05-09 03:25 | 24.40798 | -76.60570 | 36045 ft | 494 kts | 36° |
| 2026-05-09 03:25 | 24.46129 | -76.55775 | 36050 ft | 495 kts | 36° |
| 2026-05-09 03:26 | 24.51454 | -76.50979 | 36037 ft | 495 kts | 36° |
| 2026-05-09 03:26 | 24.56754 | -76.46200 | 36053 ft | 495 kts | 36° |
| 2026-05-09 03:27 | 24.62087 | -76.41386 | 36039 ft | 495 kts | 36° |
| 2026-05-09 03:27 | 24.67430 | -76.36558 | 36044 ft | 496 kts | 36° |
| 2026-05-09 03:28 | 24.72724 | -76.31769 | 36048 ft | 496 kts | 36° |
| 2026-05-09 03:28 | 24.78054 | -76.26941 | 36047 ft | 496 kts | 36° |
| 2026-05-09 03:29 | 24.83387 | -76.22105 | 36047 ft | 496 kts | 36° |
| 2026-05-09 03:29 | 24.88725 | -76.17259 | 36046 ft | 496 kts | 36° |
| 2026-05-09 03:30 | 24.94061 | -76.12409 | 36046 ft | 497 kts | 36° |
| 2026-05-09 03:30 | 24.99391 | -76.07559 | 36053 ft | 497 kts | 36° |
| 2026-05-09 03:31 | 25.04721 | -76.02703 | 36050 ft | 497 kts | 36° |
| 2026-05-09 03:31 | 25.10056 | -75.97838 | 36055 ft | 497 kts | 36° |
| 2026-05-09 03:32 | 25.15358 | -75.92996 | 36057 ft | 497 kts | 36° |
| 2026-05-09 03:32 | 25.20698 | -75.88114 | 36054 ft | 497 kts | 36° |
| 2026-05-09 03:33 | 25.26036 | -75.83228 | 36054 ft | 497 kts | 36° |
| 2026-05-09 03:33 | 25.31370 | -75.78341 | 36056 ft | 497 kts | 36° |
| 2026-05-09 03:34 | 25.36701 | -75.73450 | 36056 ft | 497 kts | 36° |
| 2026-05-09 03:34 | 25.42003 | -75.68581 | 36057 ft | 498 kts | 36° |
| 2026-05-09 03:35 | 25.47344 | -75.63669 | 36054 ft | 498 kts | 36° |
| 2026-05-09 03:35 | 25.52674 | -75.58762 | 36054 ft | 498 kts | 36° |
| 2026-05-09 03:36 | 25.57987 | -75.53864 | 36057 ft | 498 kts | 36° |
| 2026-05-09 03:36 | 25.63316 | -75.48946 | 36055 ft | 498 kts | 36° |
| 2026-05-09 03:37 | 25.68627 | -75.44038 | 36068 ft | 498 kts | 36° |
| 2026-05-09 03:37 | 25.73962 | -75.39103 | 36059 ft | 499 kts | 36° |
| 2026-05-09 03:38 | 25.79296 | -75.34162 | 36062 ft | 499 kts | 36° |
| 2026-05-09 03:38 | 25.84626 | -75.29220 | 36059 ft | 499 kts | 36° |
| 2026-05-09 03:39 | 25.89950 | -75.24276 | 36062 ft | 499 kts | 36° |
| 2026-05-09 03:39 | 25.95288 | -75.19313 | 36055 ft | 499 kts | 36° |
| 2026-05-09 03:40 | 26.00587 | -75.14381 | 36055 ft | 499 kts | 36° |
| 2026-05-09 03:40 | 26.05913 | -75.09418 | 36065 ft | 499 kts | 36° |
| 2026-05-09 03:41 | 26.11255 | -75.04433 | 36057 ft | 499 kts | 36° |
| 2026-05-09 03:41 | 26.16587 | -74.99453 | 36059 ft | 500 kts | 36° |
| 2026-05-09 03:42 | 26.21917 | -74.94467 | 36059 ft | 500 kts | 36° |
| 2026-05-09 03:42 | 26.27208 | -74.89511 | 36064 ft | 500 kts | 36° |
| 2026-05-09 03:43 | 26.32539 | -74.84513 | 36058 ft | 500 kts | 36° |
| 2026-05-09 03:43 | 26.37867 | -74.79511 | 36055 ft | 500 kts | 36° |
| 2026-05-09 03:44 | 26.43198 | -74.74499 | 36059 ft | 500 kts | 35° |
| 2026-05-09 03:44 | 26.48526 | -74.69485 | 36064 ft | 500 kts | 35° |
| 2026-05-09 03:45 | 26.53855 | -74.64462 | 36060 ft | 500 kts | 35° |
| 2026-05-09 03:45 | 26.59151 | -74.59465 | 36061 ft | 500 kts | 35° |
| 2026-05-09 03:46 | 26.64483 | -74.54429 | 36061 ft | 501 kts | 35° |
| 2026-05-09 03:46 | 26.69808 | -74.49391 | 36059 ft | 501 kts | 35° |
| 2026-05-09 03:47 | 26.75134 | -74.44347 | 36060 ft | 501 kts | 35° |
| 2026-05-09 03:47 | 26.80449 | -74.39306 | 36063 ft | 501 kts | 35° |
| 2026-05-09 03:48 | 26.85738 | -74.34283 | 36062 ft | 501 kts | 35° |
| 2026-05-09 03:48 | 26.91059 | -74.29208 | 36063 ft | 501 kts | 36° |
| 2026-05-09 03:49 | 26.96231 | -74.23926 | 36064 ft | 503 kts | 38° |
| 2026-05-09 03:49 | 27.01343 | -74.18632 | 36066 ft | 503 kts | 38° |
| 2026-05-09 03:50 | 27.06491 | -74.13299 | 36064 ft | 503 kts | 38° |
| 2026-05-09 03:50 | 27.11638 | -74.07967 | 36064 ft | 503 kts | 37° |
| 2026-05-09 03:51 | 27.16791 | -74.02624 | 36063 ft | 503 kts | 37° |
| 2026-05-09 03:51 | 27.21905 | -73.97317 | 36063 ft | 503 kts | 37° |
| 2026-05-09 03:52 | 27.27080 | -73.91938 | 36067 ft | 503 kts | 37° |
| 2026-05-09 03:52 | 27.32191 | -73.86619 | 36065 ft | 503 kts | 37° |
| 2026-05-09 03:53 | 27.37367 | -73.81226 | 36065 ft | 504 kts | 37° |
| 2026-05-09 03:53 | 27.42481 | -73.75890 | 36063 ft | 504 kts | 37° |
| 2026-05-09 03:54 | 27.47630 | -73.70510 | 36068 ft | 504 kts | 37° |
| 2026-05-09 03:54 | 27.52759 | -73.65144 | 36067 ft | 505 kts | 37° |
| 2026-05-09 03:55 | 27.57910 | -73.59747 | 36066 ft | 505 kts | 37° |
| 2026-05-09 03:55 | 27.63069 | -73.54335 | 36065 ft | 505 kts | 37° |
| 2026-05-09 03:56 | 27.68185 | -73.48961 | 36066 ft | 506 kts | 37° |
| 2026-05-09 03:56 | 27.73353 | -73.43525 | 36070 ft | 506 kts | 37° |
| 2026-05-09 03:57 | 27.78509 | -73.38096 | 36069 ft | 507 kts | 37° |
| 2026-05-09 03:57 | 27.83668 | -73.32655 | 36069 ft | 507 kts | 37° |
| 2026-05-09 03:58 | 27.88823 | -73.27210 | 36070 ft | 507 kts | 37° |
| 2026-05-09 03:58 | 27.93951 | -73.21787 | 36065 ft | 507 kts | 37° |
| 2026-05-09 03:59 | 27.99114 | -73.16318 | 36069 ft | 507 kts | 37° |
| 2026-05-09 03:59 | 28.04277 | -73.10843 | 36069 ft | 507 kts | 37° |
| 2026-05-09 04:00 | 28.09436 | -73.05364 | 36035 ft | 508 kts | 37° |
| 2026-05-09 04:00 | 28.14559 | -72.99915 | 36073 ft | 508 kts | 37° |
| 2026-05-09 04:01 | 28.19713 | -72.94427 | 36079 ft | 508 kts | 37° |
| 2026-05-09 04:01 | 28.24861 | -72.88938 | 36070 ft | 508 kts | 37° |
| 2026-05-09 04:02 | 28.30015 | -72.83432 | 36075 ft | 508 kts | 37° |
| 2026-05-09 04:02 | 28.35170 | -72.77919 | 36074 ft | 508 kts | 37° |
| 2026-05-09 04:03 | 28.39452 | -72.73334 | 36074 ft | 508 kts | 37° |
| 2026-05-09 04:03 | 28.45433 | -72.66920 | 36072 ft | 508 kts | 37° |
| 2026-05-09 04:04 | 28.49710 | -72.62329 | 36071 ft | 508 kts | 37° |
| 2026-05-09 04:04 | 28.54857 | -72.56795 | 36076 ft | 508 kts | 37° |
| 2026-05-09 04:05 | 28.60001 | -72.51256 | 36075 ft | 508 kts | 37° |
| 2026-05-09 04:05 | 28.65109 | -72.45750 | 36071 ft | 508 kts | 37° |
| 2026-05-09 04:06 | 28.70255 | -72.40194 | 36075 ft | 509 kts | 37° |
| 2026-05-09 04:06 | 28.75401 | -72.34629 | 36059 ft | 508 kts | 37° |
| 2026-05-09 04:07 | 28.80506 | -72.29101 | 36072 ft | 509 kts | 37° |
| 2026-05-09 04:07 | 28.85643 | -72.23532 | 36077 ft | 509 kts | 37° |
| 2026-05-09 04:08 | 28.90779 | -72.17955 | 36078 ft | 509 kts | 37° |
| 2026-05-09 04:08 | 28.95916 | -72.12369 | 36073 ft | 509 kts | 37° |
| 2026-05-09 04:09 | 29.01053 | -72.06775 | 36078 ft | 509 kts | 37° |
| 2026-05-09 04:09 | 29.06182 | -72.01181 | 36077 ft | 509 kts | 37° |
| 2026-05-09 04:10 | 29.11311 | -71.95579 | 36075 ft | 509 kts | 37° |
| 2026-05-09 04:10 | 29.16410 | -71.90004 | 36079 ft | 509 kts | 37° |
| 2026-05-09 04:11 | 29.21531 | -71.84395 | 36073 ft | 509 kts | 37° |
| 2026-05-09 04:11 | 29.26655 | -71.78773 | 36073 ft | 509 kts | 37° |
| 2026-05-09 04:12 | 29.31780 | -71.73144 | 36074 ft | 509 kts | 37° |
| 2026-05-09 04:12 | 29.36869 | -71.67545 | 36074 ft | 509 kts | 37° |
| 2026-05-09 04:13 | 29.41994 | -71.61898 | 36078 ft | 509 kts | 37° |
| 2026-05-09 04:13 | 29.47106 | -71.56258 | 36076 ft | 509 kts | 37° |
| 2026-05-09 04:14 | 29.52230 | -71.50596 | 36074 ft | 510 kts | 37° |
| 2026-05-09 04:14 | 29.57314 | -71.44970 | 36072 ft | 510 kts | 37° |
| 2026-05-09 04:15 | 29.62434 | -71.39295 | 36073 ft | 510 kts | 37° |
| 2026-05-09 04:15 | 29.67542 | -71.33625 | 36075 ft | 510 kts | 37° |
| 2026-05-09 04:16 | 29.72657 | -71.27939 | 36078 ft | 511 kts | 37° |
| 2026-05-09 04:16 | 29.77772 | -71.22244 | 36076 ft | 510 kts | 37° |
| 2026-05-09 04:17 | 29.82885 | -71.16543 | 36075 ft | 510 kts | 37° |
| 2026-05-09 04:17 | 29.87992 | -71.10840 | 36070 ft | 510 kts | 37° |
| 2026-05-09 04:18 | 29.93060 | -71.05172 | 36073 ft | 511 kts | 37° |
| 2026-05-09 04:18 | 29.98159 | -70.99462 | 36081 ft | 511 kts | 37° |
| 2026-05-09 04:19 | 30.03259 | -70.93740 | 36067 ft | 511 kts | 37° |
| 2026-05-09 04:19 | 30.08360 | -70.88010 | 36069 ft | 511 kts | 37° |
| 2026-05-09 04:20 | 30.13462 | -70.82270 | 36071 ft | 511 kts | 37° |
| 2026-05-09 04:20 | 30.18519 | -70.76572 | 36074 ft | 510 kts | 37° |
| 2026-05-09 04:21 | 30.23614 | -70.70823 | 36073 ft | 510 kts | 37° |
| 2026-05-09 04:22 | 30.31245 | -70.62196 | 36076 ft | 510 kts | 37° |
| 2026-05-09 04:22 | 30.36297 | -70.56473 | 36069 ft | 510 kts | 37° |
| 2026-05-09 04:23 | 30.41383 | -70.50702 | 36073 ft | 510 kts | 37° |
| 2026-05-09 04:23 | 30.46456 | -70.44938 | 36076 ft | 510 kts | 37° |
| 2026-05-09 04:24 | 30.51537 | -70.39156 | 36079 ft | 510 kts | 37° |
| 2026-05-09 04:24 | 30.56577 | -70.33411 | 36075 ft | 510 kts | 37° |
| 2026-05-09 04:25 | 30.61657 | -70.27612 | 36078 ft | 510 kts | 37° |
| 2026-05-09 04:25 | 30.66726 | -70.21816 | 36072 ft | 511 kts | 37° |
| 2026-05-09 04:26 | 30.71769 | -70.16041 | 36070 ft | 511 kts | 37° |
| 2026-05-09 04:26 | 30.76840 | -70.10226 | 36074 ft | 511 kts | 37° |
| 2026-05-09 04:27 | 30.81903 | -70.04409 | 36081 ft | 511 kts | 37° |
| 2026-05-09 04:27 | 30.86959 | -69.98593 | 36081 ft | 511 kts | 37° |
| 2026-05-09 04:28 | 30.91987 | -69.92799 | 36082 ft | 511 kts | 37° |
| 2026-05-09 04:28 | 30.97037 | -69.86970 | 36084 ft | 511 kts | 37° |
| 2026-05-09 04:29 | 31.02099 | -69.81119 | 36085 ft | 511 kts | 37° |
| 2026-05-09 04:29 | 31.07156 | -69.75264 | 36085 ft | 511 kts | 37° |
| 2026-05-09 04:30 | 31.12175 | -69.69444 | 36083 ft | 511 kts | 37° |
| 2026-05-09 04:30 | 31.17221 | -69.63584 | 36081 ft | 511 kts | 38° |
| 2026-05-09 04:31 | 31.22267 | -69.57714 | 36082 ft | 511 kts | 38° |
| 2026-05-09 04:31 | 31.27309 | -69.51840 | 36085 ft | 511 kts | 38° |
| 2026-05-09 04:32 | 31.32325 | -69.45986 | 36090 ft | 511 kts | 38° |
| 2026-05-09 04:32 | 31.37357 | -69.40104 | 36088 ft | 511 kts | 38° |
| 2026-05-09 04:33 | 31.42399 | -69.34200 | 36085 ft | 511 kts | 38° |
| 2026-05-09 04:33 | 31.47428 | -69.28303 | 36097 ft | 511 kts | 38° |
| 2026-05-09 04:34 | 31.52425 | -69.22435 | 36089 ft | 511 kts | 38° |
| 2026-05-09 04:34 | 31.57448 | -69.16526 | 36089 ft | 511 kts | 38° |
| 2026-05-09 04:35 | 31.62470 | -69.10607 | 36092 ft | 511 kts | 38° |
| 2026-05-09 04:35 | 31.67496 | -69.04675 | 36093 ft | 511 kts | 38° |
| 2026-05-09 04:36 | 31.72506 | -68.98753 | 36098 ft | 510 kts | 38° |